Time;durP1;ratioP1;P1;durP2;ratioP2;P2;SDS_P1;SDS_P2;PMS_P1;PMS_P2;Temp;Humidity;BMP_temperature;BMP_pressure;BME280_temperature;BME280_humidity;BME280_pressure;Samples;Min_cycle;Max_cycle;Signal;HPM_P1;HPM_P2
2023/07/14 00:01:45;;;;;;;;;;;;;;;17.27;64.42;99803.56;5103883;28;5290;-78
2023/07/14 00:04:11;;;;;;;;;;;;;;;17.32;64.21;99803.50;5085375;28;5192;-80
2023/07/14 00:06:38;;;;;;;;;;;;;;;17.47;63.66;99806.16;5106332;28;5136;-78
2023/07/14 00:09:05;;;;;;;;;;;;;;;17.76;62.66;99807.28;5095366;28;5357;-77
2023/07/14 00:11:32;;;;;;;;;;;;;;;17.65;63.02;99801.94;5059831;28;5127;-79
2023/07/14 00:13:59;;;;;;;;;;;;;;;18.20;60.89;99787.28;5076223;28;5062;-78
2023/07/14 00:16:26;;;;;;;;;;;;;;;18.27;60.65;99799.47;5076883;28;5677;-78
2023/07/14 00:18:52;;;;;;;;;;;;;;;18.16;61.03;99803.41;5079107;28;5339;-77
2023/07/14 00:21:19;;;;;;;;;;;;;;;18.28;60.55;99800.28;5075985;28;5204;-78
2023/07/14 00:23:45;;;;;;;;;;;;;;;18.15;60.91;99805.31;5060323;28;5190;-79
2023/07/14 00:26:13;;;;;;;;;;;;;;;18.36;60.05;99802.38;5077995;28;5356;-78
2023/07/14 00:28:40;;;;;;;;;;;;;;;18.37;60.07;99818.44;5078457;28;5256;-77
2023/07/14 00:31:07;;;;;;;;;;;;;;;18.35;60.14;99809.75;5078494;28;5618;-78
2023/07/14 00:33:33;;;;;;;;;;;;;;;18.41;59.67;99818.66;5075232;28;5232;-78
2023/07/14 00:36:00;;;;;;;;;;;;;;;18.24;60.35;99813.69;5077637;28;5337;-79
2023/07/14 00:38:26;;;;;;;;;;;;;;;18.36;59.94;99807.84;5078804;28;5366;-78
2023/07/14 00:40:53;;;;;;;;;;;;;;;18.46;59.49;99812.34;5062547;28;5314;-77
2023/07/14 00:43:19;;;;;;;;;;;;;;;18.37;59.75;99814.91;5081161;28;5336;-78
2023/07/14 00:45:47;;;;;;;;;;;;;;;18.43;59.56;99818.38;5080884;28;5335;-78
2023/07/14 00:48:14;;;;;;;;;;;;;;;18.36;59.64;99821.47;5061498;28;5277;-76
2023/07/14 00:50:40;;;;;;;;;;;;;;;18.33;59.76;99817.41;5067840;28;5533;-79
2023/07/14 00:53:07;;;;;;;;;;;;;;;18.29;60.08;99818.25;5085173;28;5586;-78
2023/07/14 00:55:33;;;;;;;;;;;;;;;18.26;60.15;99814.19;5063990;28;5132;-79
2023/07/14 00:58:00;;;;;;;;;;;;;;;18.28;59.93;99820.16;5076490;28;5646;-78
2023/07/14 01:00:27;;;;;;;;;;;;;;;18.15;60.16;99824.41;5087608;28;5254;-78
2023/07/14 01:02:53;;;;;;;;;;;;;;;18.21;60.08;99827.88;5084767;28;5343;-79
2023/07/14 01:05:20;;;;;;;;;;;;;;;18.19;59.99;99821.09;5089901;28;5313;-80
2023/07/14 01:07:46;;;;;;;;;;;;;;;18.21;59.90;99827.88;5087841;28;5286;-78
2023/07/14 01:10:13;;;;;;;;;;;;;;;18.12;60.36;99830.41;5086062;28;5379;-78
2023/07/14 01:12:43;;;;;;;;;;;;;;;18.23;59.92;99822.13;5050103;28;5096;-79
2023/07/14 01:15:10;;;;;;;;;;;;;;;18.14;60.00;99822.75;5089004;28;5263;-77
2023/07/14 01:17:36;;;;;;;;;;;;;;;18.13;60.08;99832.03;5087009;28;5278;-76
2023/07/14 01:20:07;;;;;;;;;;;;;;;18.03;60.41;99823.97;5087452;28;5286;-77
2023/07/14 01:22:34;;;;;;;;;;;;;;;17.91;60.59;99818.06;5079774;28;5377;-78
2023/07/14 01:25:01;;;;;;;;;;;;;;;18.16;60.16;99827.94;5087182;28;5794;-79
2023/07/14 01:27:27;;;;;;;;;;;;;;;18.03;60.29;99828.59;5086665;28;5332;-77
2023/07/14 01:29:54;;;;;;;;;;;;;;;18.00;60.52;99821.81;5065441;28;5363;-77
2023/07/14 01:32:20;;;;;;;;;;;;;;;17.81;61.25;99826.34;5085457;28;5210;-77
2023/07/14 01:34:47;;;;;;;;;;;;;;;17.72;61.29;99823.38;5083833;28;5244;-78
2023/07/14 01:37:13;;;;;;;;;;;;;;;17.87;60.82;99828.72;5086468;28;5327;-80
2023/07/14 01:39:40;;;;;;;;;;;;;;;17.92;60.60;99830.59;5085552;28;5160;-78
2023/07/14 01:42:06;;;;;;;;;;;;;;;17.63;61.59;99831.34;5083793;28;6262;-78
2023/07/14 01:44:33;;;;;;;;;;;;;;;17.89;60.65;99837.44;5072441;28;4987;-78
2023/07/14 01:47:00;;;;;;;;;;;;;;;17.76;60.74;99842.69;5080113;28;5180;-78
2023/07/14 01:49:27;;;;;;;;;;;;;;;17.91;60.34;99842.56;5079485;28;5061;-79
2023/07/14 01:51:53;;;;;;;;;;;;;;;17.79;60.80;99844.88;5065922;28;5257;-79
2023/07/14 01:54:20;;;;;;;;;;;;;;;17.60;61.17;99845.53;5080953;28;5222;-78
2023/07/14 01:56:46;;;;;;;;;;;;;;;17.66;61.24;99852.56;5081346;28;4911;-80
2023/07/14 01:59:13;;;;;;;;;;;;;;;17.48;61.55;99862.22;5071278;28;5205;-78
2023/07/14 02:01:41;;;;;;;;;;;;;;;17.59;61.31;99857.53;5078452;28;5386;-78
2023/07/14 02:04:07;;;;;;;;;;;;;;;17.57;61.37;99861.63;5075320;28;5255;-77
2023/07/14 02:06:34;;;;;;;;;;;;;;;17.73;60.84;99867.75;5081241;28;5309;-80
2023/07/14 02:09:01;;;;;;;;;;;;;;;17.63;61.25;99869.47;5078786;27;5163;-81
2023/07/14 02:11:27;;;;;;;;;;;;;;;17.58;61.22;99874.13;5108628;27;5252;-80
2023/07/14 02:13:54;;;;;;;;;;;;;;;17.48;61.84;99875.00;5086090;27;5225;-81
2023/07/14 02:16:20;;;;;;;;;;;;;;;17.38;61.81;99875.06;5107564;27;5013;-81
2023/07/14 02:18:47;;;;;;;;;;;;;;;17.43;61.85;99880.47;5087592;27;5135;-81
2023/07/14 02:21:13;;;;;;;;;;;;;;;17.38;61.74;99881.34;5114188;27;5400;-80
2023/07/14 02:23:40;;;;;;;;;;;;;;;17.43;61.47;99880.47;5107570;27;5276;-79
2023/07/14 02:26:07;;;;;;;;;;;;;;;17.20;62.31;99885.50;5108382;27;5239;-80
2023/07/14 02:28:34;;;;;;;;;;;;;;;17.52;61.38;99894.31;5105514;27;5205;-80
2023/07/14 02:31:00;;;;;;;;;;;;;;;17.48;61.40;99896.78;5097784;27;5304;-77
2023/07/14 02:33:27;;;;;;;;;;;;;;;17.11;62.67;99889.88;5099749;27;5212;-78
2023/07/14 02:35:53;;;;;;;;;;;;;;;17.38;61.86;99894.09;5101454;27;5304;-79
2023/07/14 02:38:20;;;;;;;;;;;;;;;17.18;62.32;99893.13;5086048;28;5316;-78
2023/07/14 02:40:46;;;;;;;;;;;;;;;17.06;62.83;99898.09;5099667;27;6359;-78
2023/07/14 02:43:13;;;;;;;;;;;;;;;17.16;62.50;99906.19;5102305;27;5174;-78
2023/07/14 02:45:39;;;;;;;;;;;;;;;17.22;62.07;99905.09;5100611;27;5311;-79
2023/07/14 02:48:06;;;;;;;;;;;;;;;17.18;62.24;99901.31;5105619;27;5118;-77
2023/07/14 02:50:32;;;;;;;;;;;;;;;17.24;62.21;99900.19;5103098;27;5339;-79
2023/07/14 02:52:59;;;;;;;;;;;;;;;17.21;62.04;99902.66;5103193;27;4986;-80
2023/07/14 02:55:26;;;;;;;;;;;;;;;17.18;62.11;99909.47;5103285;27;5578;-80
2023/07/14 02:57:52;;;;;;;;;;;;;;;17.16;62.12;99906.19;5101129;27;5115;-78
2023/07/14 03:00:19;;;;;;;;;;;;;;;17.11;62.24;99916.28;5102797;27;5271;-78
2023/07/14 03:02:45;;;;;;;;;;;;;;;17.20;62.04;99909.97;5101008;28;5659;-80
2023/07/14 03:05:12;;;;;;;;;;;;;;;17.19;61.84;99907.56;5106184;28;5203;-78
2023/07/14 03:07:39;;;;;;;;;;;;;;;17.13;62.09;99908.66;5105528;28;5557;-80
2023/07/14 03:10:05;;;;;;;;;;;;;;;17.02;62.36;99907.88;5104108;27;5335;-80
2023/07/14 03:12:32;;;;;;;;;;;;;;;16.99;62.48;99908.44;5103739;28;5355;-78
2023/07/14 03:14:59;;;;;;;;;;;;;;;17.00;62.49;99910.06;5092775;28;5165;-78
2023/07/14 03:17:25;;;;;;;;;;;;;;;17.02;62.31;99910.59;5086586;28;5509;-78
2023/07/14 03:19:52;;;;;;;;;;;;;;;16.90;62.75;99913.63;5104852;28;5315;-80
2023/07/14 03:22:18;;;;;;;;;;;;;;;16.99;62.42;99914.69;5106737;28;5494;-77
2023/07/14 03:24:45;;;;;;;;;;;;;;;16.92;62.69;99918.81;5105821;28;5347;-79
2023/07/14 03:27:12;;;;;;;;;;;;;;;16.94;62.43;99919.34;5105476;28;5191;-80
2023/07/14 03:29:38;;;;;;;;;;;;;;;16.97;62.27;99916.06;5102073;28;5382;-82
2023/07/14 03:32:05;;;;;;;;;;;;;;;16.89;62.41;99912.03;5105723;28;5342;-81
2023/07/14 03:34:31;;;;;;;;;;;;;;;16.92;62.36;99911.47;5107953;28;5221;-80
2023/07/14 03:36:58;;;;;;;;;;;;;;;16.98;62.18;99918.50;5103115;28;5224;-80
2023/07/14 03:39:25;;;;;;;;;;;;;;;16.81;62.51;99918.03;5104972;28;5256;-80
2023/07/14 03:41:52;;;;;;;;;;;;;;;17.01;62.16;99914.44;5101591;28;5546;-81
2023/07/14 03:44:18;;;;;;;;;;;;;;;16.89;62.33;99913.94;5109076;28;5217;-81
2023/07/14 03:46:45;;;;;;;;;;;;;;;16.73;62.73;99919.34;5101795;28;5285;-80
2023/07/14 03:49:12;;;;;;;;;;;;;;;16.86;62.50;99919.94;5102775;28;5221;-79
2023/07/14 03:51:38;;;;;;;;;;;;;;;16.87;62.39;99916.91;5106280;28;5341;-80
2023/07/14 03:54:05;;;;;;;;;;;;;;;16.79;62.72;99923.75;5102635;28;5215;-81
2023/07/14 03:56:31;;;;;;;;;;;;;;;16.82;62.62;99927.00;5090514;28;5369;-81
2023/07/14 03:58:58;;;;;;;;;;;;;;;16.79;62.46;99925.63;5102871;28;5244;-80
2023/07/14 04:01:25;;;;;;;;;;;;;;;16.66;62.90;99934.34;5099728;28;4921;-81
2023/07/14 04:03:52;;;;;;;;;;;;;;;16.91;62.19;99931.59;5107321;28;5073;-81
2023/07/14 04:06:18;;;;;;;;;;;;;;;16.96;61.83;99939.72;5086951;28;5403;-82
2023/07/14 04:08:45;;;;;;;;;;;;;;;16.75;62.51;99938.94;5107491;28;5287;-80
2023/07/14 04:11:11;;;;;;;;;;;;;;;16.67;62.71;99938.69;5068126;28;5140;-82
2023/07/14 04:14:03;;;;;;;;;;;;;;;16.77;62.34;99939.53;5070245;28;5148;-79
2023/07/14 04:16:55;;;;;;;;;;;;;;;16.73;62.62;99945.75;5072832;28;5196;-81
2023/07/14 04:19:46;;;;;;;;;;;;;;;16.74;62.47;99939.22;5072180;28;5317;-79
2023/07/14 04:22:38;;;;;;;;;;;;;;;16.73;62.33;99945.75;5070993;28;5045;-83
2023/07/14 04:25:30;;;;;;;;;;;;;;;16.80;62.11;99947.13;5073518;28;5295;-81
2023/07/14 04:28:22;;;;;;;;;;;;;;;16.73;62.27;99951.97;5067704;28;5330;-82
2023/07/14 04:31:14;;;;;;;;;;;;;;;16.69;62.64;99952.81;5070409;28;5142;-80
2023/07/14 04:34:05;;;;;;;;;;;;;;;16.69;62.41;99958.25;5074078;28;5132;-81
2023/07/14 04:36:57;;;;;;;;;;;;;;;16.55;62.72;99958.00;5072639;28;5077;-84
2023/07/14 04:39:48;;;;;;;;;;;;;;;16.66;62.35;99956.91;5072565;28;5183;-82
2023/07/14 04:42:39;;;;;;;;;;;;;;;16.72;62.09;99965.88;5074987;28;5281;-82
2023/07/14 04:45:31;;;;;;;;;;;;;;;16.80;61.73;99963.44;5073708;28;5152;-83
2023/07/14 04:48:23;;;;;;;;;;;;;;;16.62;62.41;99974.88;5076912;28;5093;-83
2023/07/14 04:51:13;;;;;;;;;;;;;;;16.63;62.37;99981.13;5068726;28;5097;-81
2023/07/14 04:54:04;;;;;;;;;;;;;;;16.62;62.34;99974.88;5073061;28;5092;-84
2023/07/14 04:56:56;;;;;;;;;;;;;;;16.58;62.52;99985.44;5069792;28;5299;-81
2023/07/14 04:59:24;;;;;;;;;;;;;;;16.66;62.18;99986.00;5070114;28;5286;-83
2023/07/14 05:02:15;;;;;;;;;;;;;;;16.60;62.36;99984.38;5066651;28;5263;-81
2023/07/14 05:04:55;;;;;;;;;;;;;;;16.63;62.23;99987.34;5050746;28;5281;-81
2023/07/14 05:07:21;;;;;;;;;;;;;;;16.62;62.29;99987.63;5070811;28;5351;-81
2023/07/14 05:09:48;;;;;;;;;;;;;;;16.62;62.21;99987.63;5076999;28;5695;-80
2023/07/14 05:12:14;;;;;;;;;;;;;;;16.77;61.73;99985.75;5089548;28;5370;-82
2023/07/14 05:14:41;;;;;;;;;;;;;;;16.71;61.75;99989.53;5088471;28;5356;-81
2023/07/14 05:17:07;;;;;;;;;;;;;;;16.69;61.96;99990.88;5066337;28;5593;-81
2023/07/14 05:19:34;;;;;;;;;;;;;;;16.63;62.03;99989.25;5071662;28;5273;-83
2023/07/14 05:22:00;;;;;;;;;;;;;;;16.65;61.98;99985.19;5084755;28;5283;-83
2023/07/14 05:24:27;;;;;;;;;;;;;;;16.82;61.32;99984.09;5086508;28;5431;-85
2023/07/14 05:26:56;;;;;;;;;;;;;;;16.64;62.07;99994.41;5067635;28;5424;-83
2023/07/14 05:29:22;;;;;;;;;;;;;;;16.74;61.49;99999.03;5070123;28;5716;-82
2023/07/14 05:31:49;;;;;;;;;;;;;;;16.73;61.63;99992.78;5086740;28;5327;-83
2023/07/14 05:34:15;;;;;;;;;;;;;;;16.74;61.66;100004.50;5090398;28;5113;-82
2023/07/14 05:36:42;;;;;;;;;;;;;;;16.65;61.83;100000.66;5070231;28;5262;-84
2023/07/14 05:39:09;;;;;;;;;;;;;;;16.82;61.36;100003.94;5086923;28;5386;-84
2023/07/14 05:41:36;;;;;;;;;;;;;;;16.78;61.16;100006.41;5084651;28;5652;-82
2023/07/14 05:44:02;;;;;;;;;;;;;;;16.78;61.36;100013.75;5073900;28;5414;-83
2023/07/14 05:46:29;;;;;;;;;;;;;;;16.77;61.25;100012.94;5087800;28;4903;-81
2023/07/14 05:48:56;;;;;;;;;;;;;;;16.66;61.94;100013.19;5082857;28;5097;-83
2023/07/14 05:51:22;;;;;;;;;;;;;;;16.71;61.39;100013.19;5068375;28;5365;-82
2023/07/14 05:53:49;;;;;;;;;;;;;;;16.75;61.24;100019.69;5071517;28;4973;-81
2023/07/14 05:56:15;;;;;;;;;;;;;;;16.76;61.32;100014.00;5071339;28;5132;-82
2023/07/14 05:58:42;;;;;;;;;;;;;;;16.88;60.71;100016.44;5090590;28;5332;-83
2023/07/14 06:01:10;;;;;;;;;;;;;;;16.82;60.86;100019.44;5090507;28;5320;-82
2023/07/14 06:03:37;;;;;;;;;;;;;;;16.82;60.81;100020.25;5091877;28;5164;-82
2023/07/14 06:06:04;;;;;;;;;;;;;;;16.85;60.83;100029.78;5088622;28;5296;-83
2023/07/14 06:08:30;;;;;;;;;;;;;;;16.87;60.72;100017.53;5085177;28;5297;-82
2023/07/14 06:10:57;;;;;;;;;;;;;;;16.79;60.88;100028.97;5090063;28;5323;-83
2023/07/14 06:13:24;;;;;;;;;;;;;;;16.74;60.92;100026.25;5071457;28;5432;-83
2023/07/14 06:15:50;;;;;;;;;;;;;;;16.68;61.16;100025.44;5081447;28;5001;-84
2023/07/14 06:18:17;;;;;;;;;;;;;;;16.77;61.14;100025.72;5062220;28;5357;-82
2023/07/14 06:20:43;;;;;;;;;;;;;;;16.80;60.78;100030.63;5077100;28;5464;-82
2023/07/14 06:23:10;;;;;;;;;;;;;;;16.96;60.20;100037.66;5087053;28;5123;-82
2023/07/14 06:25:36;;;;;;;;;;;;;;;16.74;60.99;100034.41;5086081;28;5056;-82
2023/07/14 06:28:03;;;;;;;;;;;;;;;16.84;60.62;100039.03;5067754;28;5299;-83
2023/07/14 06:30:29;;;;;;;;;;;;;;;16.91;60.37;100043.13;5086286;28;5201;-83
2023/07/14 06:32:56;;;;;;;;;;;;;;;16.95;60.07;100037.94;5086517;28;5165;-83
2023/07/14 06:35:23;;;;;;;;;;;;;;;16.75;60.76;100039.53;5071455;28;5351;-81
2023/07/14 06:37:50;;;;;;;;;;;;;;;16.87;60.48;100044.72;5084456;28;4945;-82
2023/07/14 06:40:17;;;;;;;;;;;;;;;16.91;60.17;100043.13;5082801;28;4781;-84
2023/07/14 06:42:43;;;;;;;;;;;;;;;16.96;60.41;100045.81;5086542;28;5128;-81
2023/07/14 06:45:10;;;;;;;;;;;;;;;16.74;60.67;100046.09;5081896;28;5064;-84
2023/07/14 06:47:37;;;;;;;;;;;;;;;16.83;60.51;100051.81;5086453;28;4932;-84
2023/07/14 06:50:04;;;;;;;;;;;;;;;16.93;60.10;100048.25;5065526;28;5285;-83
2023/07/14 06:52:31;;;;;;;;;;;;;;;17.00;59.83;100043.34;5067529;28;5225;-83
2023/07/14 06:54:58;;;;;;;;;;;;;;;16.80;60.46;100050.47;5085984;28;5039;-83
2023/07/14 06:57:24;;;;;;;;;;;;;;;16.72;60.79;100047.44;5077033;28;5248;-85
2023/07/14 06:59:51;;;;;;;;;;;;;;;16.73;60.72;100054.50;5079789;28;5198;-83
2023/07/14 07:02:17;;;;;;;;;;;;;;;16.93;60.18;100048.25;5082384;28;5076;-83
2023/07/14 07:04:44;;;;;;;;;;;;;;;16.99;59.75;100052.59;5080606;28;5097;-82
2023/07/14 07:07:10;;;;;;;;;;;;;;;16.86;60.38;100055.91;5080242;28;5139;-83
2023/07/14 07:09:37;;;;;;;;;;;;;;;17.10;59.50;100051.50;5082578;28;5301;-83
2023/07/14 07:12:04;;;;;;;;;;;;;;;16.84;60.37;100050.72;5079986;28;5197;-84
2023/07/14 07:14:31;;;;;;;;;;;;;;;16.94;60.00;100053.44;5079599;28;5177;-84
2023/07/14 07:16:58;;;;;;;;;;;;;;;17.02;59.63;100054.78;5086559;28;5382;-84
2023/07/14 07:19:24;;;;;;;;;;;;;;;16.78;60.47;100059.97;5082691;28;5128;-85
2023/07/14 07:21:51;;;;;;;;;;;;;;;16.82;60.35;100054.81;5075495;28;5330;-84
2023/07/14 07:24:17;;;;;;;;;;;;;;;16.86;60.20;100055.91;5086945;28;5283;-82
2023/07/14 07:26:44;;;;;;;;;;;;;;;16.98;59.97;100062.69;5082948;28;4988;-82
2023/07/14 07:29:11;;;;;;;;;;;;;;;16.75;60.49;100063.22;5077819;28;5196;-82
2023/07/14 07:31:37;;;;;;;;;;;;;;;16.89;60.24;100067.03;5079899;28;5338;-85
2023/07/14 07:34:05;;;;;;;;;;;;;;;16.96;59.91;100070.28;5085088;28;5102;-82
2023/07/14 07:36:32;;;;;;;;;;;;;;;17.22;59.00;100068.34;5075858;28;4943;-82
2023/07/14 07:38:59;;;;;;;;;;;;;;;17.24;58.99;100068.09;5092352;28;5338;-82
2023/07/14 07:41:26;;;;;;;;;;;;;;;17.06;59.54;100069.47;5088248;28;5314;-83
2023/07/14 07:43:52;;;;;;;;;;;;;;;17.00;59.74;100067.84;5083231;28;5355;-84
2023/07/14 07:46:21;;;;;;;;;;;;;;;16.99;59.83;100077.91;5076055;28;5381;-84
2023/07/14 07:48:48;;;;;;;;;;;;;;;17.02;59.64;100066.47;5086698;28;5315;-81
2023/07/14 07:51:14;;;;;;;;;;;;;;;16.87;60.02;100077.38;5068274;28;5217;-85
2023/07/14 07:53:41;;;;;;;;;;;;;;;16.86;60.15;100080.38;5072176;28;5236;-82
2023/07/14 07:56:08;;;;;;;;;;;;;;;16.77;60.42;100080.91;5088371;28;5277;-83
2023/07/14 07:58:34;;;;;;;;;;;;;;;16.67;60.91;100089.03;5091161;28;5288;-84
2023/07/14 08:01:01;;;;;;;;;;;;;;;16.68;60.88;100090.69;5086665;28;5353;-84
2023/07/14 08:03:27;;;;;;;;;;;;;;;16.63;60.98;100093.38;5084308;28;5218;-82
2023/07/14 08:05:54;;;;;;;;;;;;;;;16.70;60.74;100093.91;5083339;28;5165;-83
2023/07/14 08:08:21;;;;;;;;;;;;;;;16.62;61.16;100089.03;5083978;28;5378;-83
2023/07/14 08:10:48;;;;;;;;;;;;;;;16.79;60.63;100097.78;5086247;28;5355;-83
2023/07/14 08:13:14;;;;;;;;;;;;;;;16.60;61.17;100095.84;5082677;28;5395;-82
2023/07/14 08:15:41;;;;;;;;;;;;;;;16.55;61.32;100099.34;5086265;28;5525;-83
2023/07/14 08:18:08;;;;;;;;;;;;;;;16.60;61.45;100098.56;5084433;28;5140;-82
2023/07/14 08:20:36;;;;;;;;;;;;;;;16.62;61.08;100099.91;5067772;28;5218;-82
2023/07/14 08:23:02;;;;;;;;;;;;;;;16.62;61.10;100099.06;5087594;28;5202;-82
2023/07/14 08:25:29;;;;;;;;;;;;;;;16.56;61.24;100101.81;5066657;28;5195;-81
2023/07/14 08:27:55;;;;;;;;;;;;;;;16.57;61.23;100114.31;5082797;28;5356;-84
2023/07/14 08:30:25;;;;;;;;;;;;;;;16.62;61.13;100112.66;5082894;28;5307;-85
2023/07/14 08:32:51;;;;;;;;;;;;;;;16.68;60.91;100112.44;5080957;28;5078;-85
2023/07/14 08:35:18;;;;;;;;;;;;;;;16.67;61.14;100116.22;5082627;28;5356;-81
2023/07/14 08:37:45;;;;;;;;;;;;;;;16.73;60.85;100115.13;5085132;28;5104;-84
2023/07/14 08:40:11;;;;;;;;;;;;;;;16.64;61.15;100115.94;5090444;28;5352;-82
2023/07/14 08:42:39;;;;;;;;;;;;;;;16.67;61.24;100118.94;5095853;28;5252;-82
2023/07/14 08:45:07;;;;;;;;;;;;;;;16.67;60.92;100121.66;5068175;28;5252;-82
2023/07/14 08:47:34;;;;;;;;;;;;;;;16.77;60.83;100127.16;5081548;28;5170;-83
2023/07/14 08:50:00;;;;;;;;;;;;;;;16.73;60.87;100125.19;5083832;28;5278;-82
2023/07/14 08:52:27;;;;;;;;;;;;;;;16.80;60.68;100123.06;5067745;28;5458;-82
2023/07/14 08:54:55;;;;;;;;;;;;;;;16.96;60.13;100127.41;5086559;28;4806;-81
2023/07/14 08:57:22;;;;;;;;;;;;;;;16.94;60.31;100128.75;5086446;28;5196;-82
2023/07/14 08:59:48;;;;;;;;;;;;;;;16.96;60.41;100132.03;5084570;28;5297;-81
2023/07/14 09:02:15;;;;;;;;;;;;;;;16.94;60.38;100129.59;5082101;28;5399;-84
2023/07/14 09:04:42;;;;;;;;;;;;;;;16.89;60.63;100137.75;5066264;28;5209;-82
2023/07/14 09:07:09;;;;;;;;;;;;;;;16.92;60.49;100139.13;5081190;28;5371;-82
2023/07/14 09:09:35;;;;;;;;;;;;;;;16.87;60.69;100139.13;5087106;28;5308;-83
2023/07/14 09:12:02;;;;;;;;;;;;;;;16.84;60.54;100147.81;5083712;28;5228;-84
2023/07/14 09:14:30;;;;;;;;;;;;;;;16.83;60.87;100144.28;5084731;28;5279;-82
2023/07/14 09:16:57;;;;;;;;;;;;;;;16.80;60.95;100147.53;5082882;28;5126;-82
2023/07/14 09:19:24;;;;;;;;;;;;;;;16.86;60.76;100143.75;5086135;28;5154;-82
2023/07/14 09:21:51;;;;;;;;;;;;;;;16.78;61.02;100147.00;5082280;28;5517;-83
2023/07/14 09:24:17;;;;;;;;;;;;;;;16.79;60.95;100148.63;5089592;28;5217;-81
2023/07/14 09:26:44;;;;;;;;;;;;;;;16.81;60.99;100151.88;5086522;28;5302;-81
2023/07/14 09:29:10;;;;;;;;;;;;;;;16.83;60.86;100157.06;5072422;28;5399;-81
2023/07/14 09:31:38;;;;;;;;;;;;;;;16.78;61.04;100150.53;5085937;28;5308;-81
2023/07/14 09:34:04;;;;;;;;;;;;;;;16.84;61.18;100153.25;5091170;28;5226;-82
2023/07/14 09:36:31;;;;;;;;;;;;;;;16.87;60.86;100147.28;5065894;28;5243;-83
2023/07/14 09:38:57;;;;;;;;;;;;;;;16.82;60.89;100147.25;5090451;28;5322;-83
2023/07/14 09:41:24;;;;;;;;;;;;;;;16.80;61.12;100145.63;5069684;28;5293;-81
2023/07/14 09:43:51;;;;;;;;;;;;;;;16.85;60.89;100150.25;5088175;28;5243;-81
2023/07/14 09:46:17;;;;;;;;;;;;;;;16.87;60.94;100144.56;5089053;28;5350;-84
2023/07/14 09:48:44;;;;;;;;;;;;;;;16.69;61.22;100143.16;5083126;28;5252;-83
2023/07/14 09:51:11;;;;;;;;;;;;;;;16.69;61.30;100140.44;5083190;28;5256;-83
2023/07/14 09:53:37;;;;;;;;;;;;;;;16.76;61.19;100143.72;5081833;28;5363;-83
2023/07/14 09:56:04;;;;;;;;;;;;;;;16.64;61.69;100141.22;5083089;28;5291;-82
2023/07/14 09:58:31;;;;;;;;;;;;;;;16.61;61.77;100144.47;5091430;28;5379;-83
2023/07/14 10:00:59;;;;;;;;;;;;;;;16.55;61.88;100143.66;5090797;28;5362;-84
2023/07/14 10:03:30;;;;;;;;;;;;;;;16.69;61.66;100143.16;5071028;28;5278;-83
2023/07/14 10:05:57;;;;;;;;;;;;;;;16.73;61.53;100147.75;5090234;28;5711;-82
2023/07/14 10:08:23;;;;;;;;;;;;;;;16.79;61.40;100140.44;5087400;28;5382;-79
2023/07/14 10:10:50;;;;;;;;;;;;;;;16.86;61.11;100141.03;5087741;28;5050;-81
2023/07/14 10:13:16;;;;;;;;;;;;;;;16.71;61.67;100144.50;5084275;28;5323;-83
2023/07/14 10:15:43;;;;;;;;;;;;;;;16.82;61.43;100144.53;5067480;28;5216;-84
2023/07/14 10:18:09;;;;;;;;;;;;;;;16.72;61.72;100143.41;5084506;28;5312;-83
2023/07/14 10:20:36;;;;;;;;;;;;;;;16.72;61.56;100148.03;5077430;28;5172;-83
2023/07/14 10:23:03;;;;;;;;;;;;;;;16.69;62.06;100135.81;5082052;28;5551;-82
2023/07/14 10:25:29;;;;;;;;;;;;;;;16.67;61.91;100145.31;5083841;28;5050;-82
2023/07/14 10:27:56;;;;;;;;;;;;;;;16.79;61.75;100145.91;5065614;28;5113;-81
2023/07/14 10:30:22;;;;;;;;;;;;;;;16.84;61.56;100151.34;5081887;28;5219;-82
2023/07/14 10:32:49;;;;;;;;;;;;;;;16.80;61.51;100144.81;5086849;28;5149;-83
2023/07/14 10:35:15;;;;;;;;;;;;;;;16.78;61.63;100145.09;5083276;28;5459;-83
2023/07/14 10:37:42;;;;;;;;;;;;;;;16.76;61.70;100141.81;5067690;28;5332;-84
2023/07/14 10:40:11;;;;;;;;;;;;;;;16.78;61.70;100138.84;5087183;28;5359;-83
2023/07/14 10:42:38;;;;;;;;;;;;;;;16.79;61.88;100144.03;5068112;28;5385;-83
2023/07/14 10:45:04;;;;;;;;;;;;;;;16.85;61.87;100144.00;5070990;28;5425;-82
2023/07/14 10:47:31;;;;;;;;;;;;;;;16.83;61.82;100146.19;5069681;28;5285;-81
2023/07/14 10:49:58;;;;;;;;;;;;;;;16.84;61.90;100153.25;5085840;28;5324;-81
2023/07/14 10:52:25;;;;;;;;;;;;;;;16.92;61.62;100152.72;5073490;28;5343;-81
2023/07/14 10:54:51;;;;;;;;;;;;;;;16.94;61.68;100158.69;5087303;28;5671;-83
2023/07/14 10:57:18;;;;;;;;;;;;;;;16.95;61.59;100154.91;5099304;28;5334;-82
2023/07/14 10:59:45;;;;;;;;;;;;;;;16.94;61.80;100162.25;5066293;28;5241;-84
2023/07/14 11:02:11;;;;;;;;;;;;;;;16.87;61.85;100158.97;5066163;28;5360;-84
2023/07/14 11:04:38;;;;;;;;;;;;;;;16.88;61.70;100157.06;5081551;28;5166;-84
2023/07/14 11:07:05;;;;;;;;;;;;;;;16.99;61.23;100153.25;5079234;28;5205;-83
2023/07/14 11:09:31;;;;;;;;;;;;;;;17.00;60.93;100155.72;5083198;28;5214;-83
2023/07/14 11:11:58;;;;;;;;;;;;;;;16.96;61.12;100160.06;5081886;28;5219;-83
2023/07/14 11:14:24;;;;;;;;;;;;;;;16.98;61.04;100152.44;5082779;28;5233;-81
2023/07/14 11:16:51;;;;;;;;;;;;;;;16.97;61.01;100156.25;5068678;28;5409;-82
2023/07/14 11:19:17;;;;;;;;;;;;;;;16.95;61.26;100160.34;5084419;28;5417;-81
2023/07/14 11:21:44;;;;;;;;;;;;;;;16.99;61.02;100155.97;5067992;28;6052;-81
2023/07/14 11:24:10;;;;;;;;;;;;;;;16.97;61.23;100155.41;5065508;28;5255;-81
2023/07/14 11:26:37;;;;;;;;;;;;;;;16.96;61.18;100161.97;5082520;28;5267;-81
2023/07/14 11:29:04;;;;;;;;;;;;;;;16.93;61.44;100160.59;5061797;28;5254;-83
2023/07/14 11:31:31;;;;;;;;;;;;;;;16.98;61.26;100166.03;5082883;28;5104;-82
2023/07/14 11:33:58;;;;;;;;;;;;;;;16.96;61.28;100164.69;5079793;28;5163;-82
2023/07/14 11:36:24;;;;;;;;;;;;;;;16.96;61.48;100161.97;5076381;28;5209;-83
2023/07/14 11:38:51;;;;;;;;;;;;;;;16.98;61.76;100160.59;5063688;28;5588;-81
2023/07/14 11:41:17;;;;;;;;;;;;;;;16.99;61.72;100158.69;5062989;28;5528;-82
2023/07/14 11:43:44;;;;;;;;;;;;;;;17.01;61.84;100168.22;5082729;28;5047;-83
2023/07/14 11:46:13;;;;;;;;;;;;;;;16.99;61.71;100161.41;5082691;28;4830;-82
2023/07/14 11:48:39;;;;;;;;;;;;;;;16.97;61.96;100161.69;5064851;28;5157;-83
2023/07/14 11:51:06;;;;;;;;;;;;;;;16.99;62.02;100167.66;5078627;28;5222;-82
2023/07/14 11:53:33;;;;;;;;;;;;;;;16.98;62.09;100151.63;5080846;28;5288;-84
2023/07/14 11:55:59;;;;;;;;;;;;;;;17.05;61.94;100154.88;5083862;28;5208;-80
2023/07/14 11:58:27;;;;;;;;;;;;;;;17.02;61.94;100156.25;5088441;28;5404;-81
2023/07/14 12:00:53;;;;;;;;;;;;;;;17.04;62.17;100161.44;5087114;28;5335;-80
2023/07/14 12:03:20;;;;;;;;;;;;;;;17.02;62.27;100161.69;5080841;28;5301;-80
2023/07/14 12:05:47;;;;;;;;;;;;;;;17.02;62.51;100166.31;5086109;28;5385;-80
2023/07/14 12:08:13;;;;;;;;;;;;;;;17.06;62.52;100166.56;5087709;28;5203;-82
2023/07/14 12:10:41;;;;;;;;;;;;;;;17.02;62.67;100161.69;5056962;28;5447;-79
2023/07/14 12:13:08;;;;;;;;;;;;;;;17.04;62.73;100164.16;5087287;28;5313;-83
2023/07/14 12:15:34;;;;;;;;;;;;;;;17.08;62.75;100157.06;5089463;28;5386;-82
2023/07/14 12:18:01;;;;;;;;;;;;;;;17.08;62.79;100165.22;5087781;28;5154;-84
2023/07/14 12:20:27;;;;;;;;;;;;;;;17.07;62.87;100166.31;5088488;28;5171;-83
2023/07/14 12:22:54;;;;;;;;;;;;;;;17.12;62.92;100165.50;5087404;28;5288;-82
2023/07/14 12:25:21;;;;;;;;;;;;;;;17.11;62.88;100161.94;5089420;28;5243;-83
2023/07/14 12:27:48;;;;;;;;;;;;;;;17.10;63.09;100167.69;5089835;28;5712;-80
2023/07/14 12:30:15;;;;;;;;;;;;;;;17.14;63.05;100175.00;5071147;28;5454;-81
2023/07/14 12:32:41;;;;;;;;;;;;;;;17.16;62.92;100172.84;5090567;28;5362;-81
2023/07/14 12:35:08;;;;;;;;;;;;;;;17.16;63.04;100169.31;5092417;28;5339;-82
2023/07/14 12:37:35;;;;;;;;;;;;;;;17.15;63.28;100170.41;5087173;28;4846;-84
2023/07/14 12:40:03;;;;;;;;;;;;;;;17.14;63.33;100169.56;5088008;28;5285;-82
2023/07/14 12:42:30;;;;;;;;;;;;;;;17.17;63.20;100166.31;5087849;28;5185;-82
2023/07/14 12:44:57;;;;;;;;;;;;;;;17.16;63.33;100164.69;5090178;28;5227;-83
2023/07/14 12:47:23;;;;;;;;;;;;;;;17.21;63.33;100174.75;5087620;28;5431;-85
2023/07/14 12:49:50;;;;;;;;;;;;;;;17.22;63.22;100174.47;5090056;28;5604;-84
2023/07/14 12:52:16;;;;;;;;;;;;;;;17.18;63.32;100176.13;5093128;28;5338;-83
2023/07/14 12:54:43;;;;;;;;;;;;;;;17.21;63.63;100174.75;5091018;28;5271;-85